createdAt,value
2022-11-06T00:01:11.281Z,89.72
2022-11-06T00:03:38.216Z,89.14
2022-11-06T00:06:33.053Z,88.93
2022-11-06T00:09:04.484Z,88.53
2022-11-06T00:11:31.374Z,88.43
2022-11-06T00:14:00.294Z,88.04
2022-11-06T00:16:27.847Z,88.07
2022-11-06T00:18:55.290Z,88.29
2022-11-06T00:21:26.888Z,88.05
2022-11-06T00:23:55.014Z,87.14
2022-11-06T00:26:24.357Z,87.12
2022-11-06T00:28:52.024Z,86.31
2022-11-06T00:31:30.369Z,86.31
2022-11-06T00:33:58.801Z,86.49
2022-11-06T00:36:26.975Z,86.88
2022-11-06T00:38:55.470Z,86.44
2022-11-06T00:41:23.588Z,86.62
2022-11-06T00:43:52.342Z,86.44
2022-11-06T00:46:19.968Z,86.38
2022-11-06T00:48:47.591Z,86.24
2022-11-06T00:51:17.901Z,86.54
2022-11-06T00:53:45.980Z,86.13
2022-11-06T00:56:16.800Z,85.69
2022-11-06T00:58:44.392Z,85.90
2022-11-06T01:01:19.094Z,86.14
2022-11-06T01:03:47.762Z,85.12
2022-11-06T01:06:20.066Z,85.24
2022-11-06T01:08:48.137Z,84.95
2022-11-06T01:11:16.506Z,84.25
2022-11-06T01:13:44.417Z,83.97
2022-11-06T01:16:15.102Z,84.16
2022-11-06T01:18:43.565Z,83.47
2022-11-06T01:21:19.906Z,82.96
2022-11-06T01:23:47.985Z,83.13
2022-11-06T01:26:18.617Z,83.83
2022-11-06T01:28:56.750Z,83.68
2022-11-06T01:31:27.337Z,83.66
2022-11-06T01:33:56.437Z,83.40
2022-11-06T01:36:23.856Z,83.96
2022-11-06T01:38:53.620Z,84.09
2022-11-06T01:41:30.145Z,84.71
2022-11-06T01:44:09.365Z,85.58
2022-11-06T01:46:37.004Z,86.88
2022-11-06T01:49:07.464Z,87.17
2022-11-06T01:51:42.137Z,88.19
2022-11-06T01:54:12.169Z,87.52
2022-11-06T01:56:41.674Z,88.60
2022-11-06T01:59:10.061Z,88.88
2022-11-06T02:01:37.195Z,90.00
2022-11-06T02:04:13.849Z,89.48
2022-11-06T02:06:40.939Z,90.11
2022-11-06T02:09:12.312Z,89.60
2022-11-06T02:11:44.756Z,90.55
2022-11-06T02:14:25.198Z,90.52
2022-11-06T02:16:52.993Z,91.60
2022-11-06T02:19:51.884Z,90.63
2022-11-06T02:22:18.717Z,91.10
2022-11-06T02:24:59.598Z,91.25
2022-11-06T02:27:28.927Z,92.53
2022-11-06T02:30:02.562Z,94.21
2022-11-06T02:32:45.147Z,96.01
2022-11-06T02:35:32.956Z,96.53
2022-11-06T02:38:09.706Z,95.61
2022-11-06T02:40:50.452Z,95.71
2022-11-06T02:43:19.964Z,96.28
2022-11-06T02:45:58.450Z,96.33
2022-11-06T02:48:31.006Z,97.68
2022-11-06T02:51:00.910Z,96.88
2022-11-06T02:53:30.330Z,97.29
2022-11-06T02:56:05.300Z,96.67
2022-11-06T02:58:47.767Z,97.35
2022-11-06T03:01:29.827Z,97.64
2022-11-06T03:04:03.862Z,97.39
2022-11-06T03:06:38.036Z,97.53
2022-11-06T03:09:18.770Z,98.06
2022-11-06T03:11:54.056Z,97.37
2022-11-06T03:14:36.374Z,97.39
2022-11-06T03:17:09.039Z,97.45
2022-11-06T03:19:42.836Z,96.79
2022-11-06T03:22:15.018Z,97.18
2022-11-06T03:24:53.955Z,96.83
2022-11-06T03:27:25.971Z,96.19
2022-11-06T03:30:01.533Z,97.80
2022-11-06T03:32:36.776Z,98.83
2022-11-06T03:35:19.905Z,99.44
2022-11-06T03:37:51.935Z,100.00
2022-11-06T03:40:23.541Z,100.00
2022-11-06T03:42:52.984Z,100.00
2022-11-06T03:45:22.859Z,100.00
2022-11-06T03:47:57.602Z,100.00
2022-11-06T03:50:47.109Z,100.00
2022-11-06T03:53:21.274Z,100.00
2022-11-06T03:56:00.309Z,100.00
2022-11-06T03:58:31.959Z,100.00
2022-11-06T04:01:03.333Z,100.00
2022-11-06T04:03:36.108Z,100.00
2022-11-06T04:06:15.879Z,100.00
2022-11-06T04:09:03.697Z,100.00
2022-11-06T04:11:53.196Z,100.00
2022-11-06T04:14:22.447Z,100.00
2022-11-06T04:16:57.808Z,100.00
2022-11-06T04:19:24.920Z,100.00
2022-11-06T04:22:07.056Z,100.00
2022-11-06T04:25:01.443Z,100.00
2022-11-06T04:27:34.064Z,100.00
2022-11-06T04:30:08.978Z,100.00
2022-11-06T04:32:38.791Z,100.00
2022-11-06T04:35:19.712Z,100.00
2022-11-06T04:37:58.996Z,100.00
2022-11-06T04:40:29.808Z,100.00
2022-11-06T04:42:58.616Z,100.00
2022-11-06T04:45:36.353Z,100.00
2022-11-06T04:48:05.601Z,100.00
2022-11-06T04:50:39.799Z,100.00
2022-11-06T04:53:09.527Z,100.00
2022-11-06T04:55:47.100Z,100.00
2022-11-06T04:58:14.765Z,100.00
2022-11-06T05:00:46.403Z,100.00
2022-11-06T05:03:14.192Z,100.00
2022-11-06T05:05:41.099Z,100.00
2022-11-06T05:08:15.100Z,100.00
2022-11-06T05:10:43.735Z,100.00
2022-11-06T05:13:10.588Z,100.00
2022-11-06T05:15:37.554Z,100.00
2022-11-06T05:18:05.505Z,100.00
2022-11-06T05:20:32.871Z,100.00
2022-11-06T05:23:02.444Z,100.00
2022-11-06T05:25:36.801Z,100.00
2022-11-06T05:28:07.166Z,100.00
2022-11-06T05:30:36.228Z,100.00
2022-11-06T05:33:03.764Z,100.00
2022-11-06T05:35:30.750Z,100.00
2022-11-06T05:38:02.282Z,100.00
2022-11-06T05:40:29.827Z,100.00
2022-11-06T05:42:56.697Z,100.00
2022-11-06T05:45:23.586Z,100.00
2022-11-06T05:47:50.467Z,100.00
2022-11-06T05:50:17.342Z,100.00
2022-11-06T05:52:44.232Z,100.00
2022-11-06T05:55:14.706Z,100.00
2022-11-06T05:57:42.805Z,100.00
2022-11-06T06:00:11.225Z,100.00
2022-11-06T06:02:43.234Z,100.00
2022-11-06T06:05:10.864Z,100.00
2022-11-06T06:07:37.763Z,100.00
2022-11-06T06:10:05.265Z,100.00
2022-11-06T06:12:32.195Z,100.00
2022-11-06T06:14:59.133Z,100.00
2022-11-06T06:17:26.387Z,100.00
2022-11-06T06:19:53.378Z,100.00
2022-11-06T06:22:20.239Z,100.00
2022-11-06T06:24:47.135Z,100.00
2022-11-06T06:27:14.201Z,100.00
2022-11-06T06:29:40.982Z,100.00
2022-11-06T06:32:08.062Z,100.00
2022-11-06T06:34:34.907Z,100.00
2022-11-06T06:37:01.763Z,100.00
2022-11-06T06:39:28.618Z,100.00
2022-11-06T06:41:55.513Z,100.00
2022-11-06T06:44:22.708Z,100.00
2022-11-06T06:46:49.612Z,100.00
2022-11-06T06:49:16.525Z,100.00
2022-11-06T06:51:43.403Z,100.00
2022-11-06T06:54:10.383Z,100.00
2022-11-06T06:56:37.189Z,100.00
2022-11-06T06:59:04.058Z,100.00
2022-11-06T07:01:31.069Z,100.00
2022-11-06T07:04:03.723Z,100.00
2022-11-06T07:06:31.263Z,100.00
2022-11-06T07:08:58.115Z,100.00
2022-11-06T07:11:24.969Z,100.00
2022-11-06T07:13:51.798Z,100.00
2022-11-06T07:16:18.698Z,100.00
2022-11-06T07:18:45.595Z,100.00
2022-11-06T07:21:13.082Z,100.00
2022-11-06T07:23:40.363Z,100.00
2022-11-06T07:26:07.286Z,100.00
2022-11-06T07:28:34.539Z,100.00
2022-11-06T07:31:05.316Z,100.00
2022-11-06T07:33:33.005Z,100.00
2022-11-06T07:36:04.540Z,100.00
2022-11-06T07:38:34.704Z,100.00
2022-11-06T07:41:03.444Z,100.00
2022-11-06T07:43:30.331Z,100.00
2022-11-06T07:46:02.440Z,100.00
2022-11-06T07:48:30.465Z,100.00
2022-11-06T07:50:57.470Z,100.00
2022-11-06T07:53:24.908Z,100.00
2022-11-06T07:55:53.453Z,100.00
2022-11-06T07:58:21.096Z,100.00
2022-11-06T08:00:52.952Z,100.00
2022-11-06T08:03:20.565Z,100.00
2022-11-06T08:05:47.784Z,100.00
2022-11-06T08:08:15.073Z,100.00
2022-11-06T08:10:43.803Z,100.00
2022-11-06T08:13:12.395Z,100.00
2022-11-06T08:15:39.966Z,100.00
2022-11-06T08:18:08.432Z,100.00
2022-11-06T08:20:36.730Z,100.00
2022-11-06T08:23:05.903Z,100.00
2022-11-06T08:25:34.657Z,100.00
2022-11-06T08:28:03.135Z,100.00
2022-11-06T08:30:30.988Z,100.00
2022-11-06T08:33:04.632Z,100.00
2022-11-06T08:35:34.031Z,100.00
2022-11-06T08:38:01.148Z,100.00
2022-11-06T08:40:31.163Z,100.00
2022-11-06T08:43:03.458Z,100.00
2022-11-06T08:45:31.228Z,100.00
2022-11-06T08:48:02.942Z,100.00
2022-11-06T08:50:31.436Z,100.00
2022-11-06T08:53:01.483Z,100.00
2022-11-06T08:55:28.847Z,100.00
2022-11-06T08:57:55.789Z,100.00
2022-11-06T09:00:23.230Z,100.00
2022-11-06T09:02:50.586Z,100.00
2022-11-06T09:05:17.985Z,100.00
2022-11-06T09:07:45.125Z,100.00
2022-11-06T09:10:11.952Z,100.00
2022-11-06T09:12:40.330Z,100.00
2022-11-06T09:15:07.555Z,100.00
2022-11-06T09:17:34.775Z,100.00
2022-11-06T09:20:01.652Z,100.00
2022-11-06T09:22:29.827Z,99.58
2022-11-06T09:25:04.640Z,100.00
2022-11-06T09:27:33.015Z,100.00
2022-11-06T09:29:59.873Z,100.00
2022-11-06T09:32:27.862Z,100.00
2022-11-06T09:34:54.749Z,100.00
2022-11-06T09:37:21.652Z,100.00
2022-11-06T09:39:48.506Z,100.00
2022-11-06T09:42:42.890Z,100.00
2022-11-06T09:45:23.676Z,100.00
2022-11-06T09:47:57.311Z,100.00
2022-11-06T09:50:30.419Z,100.00
2022-11-06T09:53:07.671Z,100.00
2022-11-06T09:55:39.820Z,100.00
2022-11-06T09:58:18.095Z,100.00
2022-11-06T10:00:45.121Z,100.00
2022-11-06T10:03:18.198Z,99.67
2022-11-06T10:05:46.903Z,99.62
2022-11-06T10:08:22.656Z,96.41
2022-11-06T10:11:21.858Z,96.04
2022-11-06T10:14:43.940Z,95.78
2022-11-06T10:17:31.713Z,96.83
2022-11-06T10:20:12.791Z,97.48
2022-11-06T10:22:45.497Z,97.14
2022-11-06T10:25:25.427Z,95.87
2022-11-06T10:28:21.213Z,95.12
2022-11-06T10:30:53.131Z,94.56
2022-11-06T10:33:37.016Z,95.77
2022-11-06T10:36:12.394Z,94.69
2022-11-06T10:38:47.238Z,94.82
2022-11-06T10:41:21.947Z,95.26
2022-11-06T10:43:55.405Z,95.58
2022-11-06T10:46:34.527Z,95.21
2022-11-06T10:49:05.791Z,95.12
2022-11-06T10:51:51.305Z,96.52
2022-11-06T10:54:44.117Z,96.68
2022-11-06T10:57:38.636Z,97.22
2022-11-06T11:00:06.451Z,97.31
2022-11-06T11:02:41.252Z,98.05
2022-11-06T11:05:17.293Z,97.06
2022-11-06T11:07:46.165Z,97.59
2022-11-06T11:10:29.283Z,97.48
2022-11-06T11:13:01.687Z,97.65
2022-11-06T11:15:46.931Z,96.87
2022-11-06T11:18:14.089Z,96.80
2022-11-06T11:20:43.835Z,95.21
2022-11-06T11:23:16.796Z,95.19
2022-11-06T11:25:52.789Z,95.35
2022-11-06T11:28:32.425Z,94.49
2022-11-06T11:31:15.786Z,95.24
2022-11-06T11:33:52.819Z,95.40
2022-11-06T11:36:19.714Z,96.86
2022-11-06T11:38:47.834Z,97.66
2022-11-06T11:41:26.318Z,98.85
2022-11-06T11:44:04.917Z,98.54
2022-11-06T11:46:33.010Z,100.00
2022-11-06T11:49:00.330Z,100.00
2022-11-06T11:51:33.897Z,100.00
2022-11-06T11:54:07.199Z,100.00
2022-11-06T11:57:03.717Z,100.00
2022-11-06T11:59:50.205Z,100.00
2022-11-06T12:02:27.218Z,100.00
2022-11-06T12:05:01.907Z,100.00
2022-11-06T12:07:33.078Z,100.00
2022-11-06T12:10:02.808Z,100.00
2022-11-06T12:12:33.460Z,100.00
2022-11-06T12:15:45.589Z,100.00
2022-11-06T12:18:19.861Z,100.00
2022-11-06T12:20:50.411Z,100.00
2022-11-06T12:23:49.628Z,100.00
2022-11-06T12:26:53.929Z,100.00
2022-11-06T12:29:27.800Z,100.00
2022-11-06T12:32:10.239Z,100.00
2022-11-06T12:34:39.753Z,100.00
2022-11-06T12:37:26.648Z,100.00
2022-11-06T12:40:20.854Z,100.00
2022-11-06T12:43:00.856Z,100.00
2022-11-06T12:46:06.950Z,100.00
2022-11-06T12:48:45.926Z,100.00
2022-11-06T12:51:28.754Z,100.00
2022-11-06T12:54:27.936Z,100.00
2022-11-06T12:57:26.567Z,100.00
2022-11-06T13:00:06.422Z,100.00
2022-11-06T13:03:08.455Z,100.00
2022-11-06T13:05:40.928Z,100.00
2022-11-06T13:08:38.994Z,100.00
2022-11-06T13:11:24.455Z,100.00
2022-11-06T13:14:27.360Z,100.00
2022-11-06T13:17:25.608Z,100.00
2022-11-06T13:19:58.206Z,100.00
2022-11-06T13:23:15.575Z,100.00
2022-11-06T13:26:00.587Z,100.00
2022-11-06T13:28:49.982Z,100.00
2022-11-06T13:31:22.731Z,100.00
2022-11-06T13:33:54.561Z,100.00
2022-11-06T13:36:22.213Z,100.00
2022-11-06T13:38:56.684Z,100.00
2022-11-06T13:41:28.728Z,100.00
2022-11-06T13:44:06.091Z,100.00
2022-11-06T13:46:43.180Z,100.00
2022-11-06T13:49:17.107Z,100.00
2022-11-06T13:51:57.758Z,100.00
2022-11-06T13:54:25.846Z,100.00
2022-11-06T13:57:18.912Z,100.00
2022-11-06T13:59:46.771Z,100.00
2022-11-06T14:02:16.783Z,100.00
2022-11-06T14:04:54.189Z,100.00
2022-11-06T14:07:23.000Z,100.00
2022-11-06T14:09:50.752Z,100.00
2022-11-06T14:12:22.969Z,100.00
2022-11-06T14:15:13.433Z,100.00
2022-11-06T14:17:41.219Z,100.00
2022-11-06T14:20:38.366Z,100.00
2022-11-06T14:23:29.964Z,100.00
2022-11-06T14:26:12.270Z,100.00
2022-11-06T14:28:44.047Z,100.00
2022-11-06T14:31:31.716Z,100.00
2022-11-06T14:33:59.168Z,100.00
2022-11-06T14:36:27.002Z,100.00
2022-11-06T14:38:54.573Z,100.00
2022-11-06T14:41:36.553Z,100.00
2022-11-06T14:44:31.910Z,100.00
2022-11-06T14:47:05.469Z,100.00
2022-11-06T14:49:46.350Z,100.00
2022-11-06T14:52:15.909Z,100.00
2022-11-06T14:55:16.643Z,100.00
2022-11-06T14:57:46.872Z,100.00
2022-11-06T15:00:33.959Z,100.00
2022-11-06T15:03:04.285Z,100.00
2022-11-06T15:05:32.271Z,100.00
2022-11-06T15:08:05.335Z,100.00
2022-11-06T15:10:44.878Z,100.00
2022-11-06T15:13:13.527Z,100.00
2022-11-06T15:15:43.711Z,100.00
2022-11-06T15:18:13.624Z,100.00
2022-11-06T15:20:41.236Z,100.00
2022-11-06T15:23:15.560Z,100.00
2022-11-06T15:26:20.330Z,100.00
2022-11-06T15:29:04.300Z,100.00
2022-11-06T15:31:33.567Z,100.00
2022-11-06T15:34:05.722Z,100.00
2022-11-06T15:36:42.553Z,100.00
2022-11-06T15:39:34.571Z,100.00
2022-11-06T15:42:02.772Z,100.00
2022-11-06T15:44:30.170Z,100.00
2022-11-06T15:46:58.828Z,100.00
2022-11-06T15:49:26.889Z,100.00
2022-11-06T15:51:59.834Z,100.00
2022-11-06T15:54:43.795Z,100.00
2022-11-06T15:57:27.903Z,100.00
2022-11-06T16:00:09.452Z,100.00
2022-11-06T16:02:56.501Z,100.00
2022-11-06T16:05:25.020Z,100.00
2022-11-06T16:07:51.996Z,100.00
2022-11-06T16:10:23.638Z,100.00
2022-11-06T16:12:55.473Z,100.00
2022-11-06T16:16:01.989Z,100.00
2022-11-06T16:18:45.490Z,100.00
2022-11-06T16:21:19.734Z,100.00
2022-11-06T16:23:52.004Z,100.00
2022-11-06T16:26:25.012Z,100.00
2022-11-06T16:28:54.781Z,100.00
2022-11-06T16:31:27.087Z,100.00
2022-11-06T16:34:00.216Z,100.00
2022-11-06T16:36:29.312Z,100.00
2022-11-06T16:39:48.746Z,100.00
2022-11-06T16:42:23.040Z,100.00
2022-11-06T16:45:08.295Z,100.00
2022-11-06T16:47:35.819Z,100.00
2022-11-06T16:50:06.020Z,100.00
2022-11-06T16:52:39.423Z,100.00
2022-11-06T16:55:17.001Z,100.00
2022-11-06T16:58:04.449Z,100.00
2022-11-06T17:00:33.079Z,100.00
2022-11-06T17:03:04.497Z,100.00
2022-11-06T17:05:37.450Z,100.00
2022-11-06T17:08:08.417Z,100.00
2022-11-06T17:10:35.245Z,100.00
2022-11-06T17:13:31.212Z,100.00
2022-11-06T17:16:00.686Z,100.00
2022-11-06T17:18:36.067Z,100.00
2022-11-06T17:21:11.690Z,100.00
2022-11-06T17:23:39.038Z,100.00
2022-11-06T17:26:12.969Z,100.00
2022-11-06T17:28:41.101Z,100.00
2022-11-06T17:31:12.941Z,100.00
2022-11-06T17:33:41.322Z,100.00
2022-11-06T17:36:16.393Z,100.00
2022-11-06T17:38:43.290Z,100.00
2022-11-06T17:41:10.261Z,100.00
2022-11-06T17:43:37.291Z,100.00
2022-11-06T17:46:05.036Z,100.00
2022-11-06T17:48:31.894Z,100.00
2022-11-06T17:51:17.693Z,100.00
2022-11-06T17:53:44.571Z,100.00
2022-11-06T17:56:11.420Z,100.00
2022-11-06T17:58:38.274Z,100.00
2022-11-06T18:01:09.724Z,100.00
2022-11-06T18:03:43.922Z,100.00
2022-11-06T18:06:13.380Z,100.00
2022-11-06T18:08:40.668Z,100.00
2022-11-06T18:11:08.565Z,100.00
2022-11-06T18:13:36.586Z,100.00
2022-11-06T18:16:04.759Z,100.00
2022-11-06T18:18:31.605Z,100.00
2022-11-06T18:20:58.481Z,100.00
2022-11-06T18:23:25.594Z,100.00
2022-11-06T18:25:59.038Z,100.00
2022-11-06T18:28:26.085Z,100.00
2022-11-06T18:30:53.162Z,100.00
2022-11-06T18:33:20.679Z,100.00
2022-11-06T18:35:47.641Z,100.00
2022-11-06T18:38:15.964Z,100.00
2022-11-06T18:40:48.874Z,100.00
2022-11-06T18:43:18.863Z,100.00
2022-11-06T18:45:45.773Z,100.00
2022-11-06T18:48:16.972Z,100.00
2022-11-06T18:50:46.789Z,100.00
2022-11-06T18:53:15.062Z,100.00
2022-11-06T18:55:46.051Z,100.00
2022-11-06T18:58:13.592Z,100.00
2022-11-06T19:00:40.591Z,100.00
2022-11-06T19:03:07.416Z,100.00
2022-11-06T19:05:39.416Z,100.00
2022-11-06T19:08:06.219Z,100.00
2022-11-06T19:10:33.088Z,100.00
2022-11-06T19:12:59.916Z,100.00
2022-11-06T19:15:26.838Z,100.00
2022-11-06T19:17:55.057Z,100.00
2022-11-06T19:20:22.840Z,100.00
2022-11-06T19:22:51.706Z,100.00
2022-11-06T19:25:20.014Z,100.00
2022-11-06T19:27:47.478Z,100.00
2022-11-06T19:30:15.820Z,100.00
2022-11-06T19:32:43.055Z,100.00
2022-11-06T19:35:10.417Z,100.00
2022-11-06T19:37:38.436Z,100.00
2022-11-06T19:40:06.563Z,100.00
2022-11-06T19:42:35.593Z,100.00
2022-11-06T19:45:06.096Z,100.00
2022-11-06T19:47:33.244Z,100.00
2022-11-06T19:50:00.906Z,100.00
2022-11-06T19:52:42.943Z,100.00
2022-11-06T19:55:27.063Z,100.00
2022-11-06T19:57:58.516Z,100.00
2022-11-06T20:00:26.330Z,100.00
2022-11-06T20:02:53.130Z,100.00
2022-11-06T20:05:19.980Z,100.00
2022-11-06T20:07:46.902Z,100.00
2022-11-06T20:10:13.873Z,100.00
2022-11-06T20:12:40.845Z,100.00
2022-11-06T20:15:09.180Z,100.00
2022-11-06T20:17:36.080Z,100.00
2022-11-06T20:20:03.132Z,100.00
2022-11-06T20:22:29.971Z,100.00
2022-11-06T20:24:56.790Z,100.00
2022-11-06T20:27:23.876Z,100.00
2022-11-06T20:29:50.768Z,100.00
2022-11-06T20:32:19.270Z,100.00
2022-11-06T20:34:46.464Z,100.00
2022-11-06T20:37:14.513Z,100.00
2022-11-06T20:39:42.120Z,100.00
2022-11-06T20:42:09.109Z,100.00
2022-11-06T20:44:37.649Z,100.00
2022-11-06T20:47:04.602Z,100.00
2022-11-06T20:49:31.638Z,100.00
2022-11-06T20:52:15.106Z,100.00
2022-11-06T20:54:47.293Z,100.00
2022-11-06T20:57:16.508Z,100.00
2022-11-06T20:59:44.442Z,100.00
2022-11-06T21:02:11.879Z,100.00
2022-11-06T21:04:38.890Z,100.00
2022-11-06T21:07:07.232Z,100.00
2022-11-06T21:09:34.142Z,100.00
2022-11-06T21:12:01.417Z,100.00
2022-11-06T21:14:29.014Z,100.00
2022-11-06T21:16:57.220Z,100.00
2022-11-06T21:19:24.520Z,100.00
2022-11-06T21:21:51.591Z,100.00
2022-11-06T21:24:21.319Z,100.00
2022-11-06T21:26:48.408Z,100.00
2022-11-06T21:29:15.509Z,100.00
2022-11-06T21:31:48.509Z,100.00
2022-11-06T21:34:16.830Z,100.00
2022-11-06T21:36:44.188Z,100.00
2022-11-06T21:39:14.473Z,100.00
2022-11-06T21:41:42.037Z,100.00
2022-11-06T21:44:17.465Z,100.00
2022-11-06T21:46:46.177Z,100.00
2022-11-06T21:49:14.084Z,100.00
2022-11-06T21:51:41.631Z,100.00
2022-11-06T21:54:29.716Z,100.00
2022-11-06T21:56:56.979Z,100.00
2022-11-06T21:59:26.969Z,100.00
2022-11-06T22:01:54.743Z,100.00
2022-11-06T22:04:21.716Z,100.00
2022-11-06T22:06:48.538Z,100.00
2022-11-06T22:09:18.405Z,100.00
2022-11-06T22:11:47.590Z,100.00
2022-11-06T22:14:16.533Z,100.00
2022-11-06T22:16:46.756Z,100.00
2022-11-06T22:19:15.401Z,100.00
2022-11-06T22:21:42.590Z,100.00
2022-11-06T22:24:12.253Z,100.00
2022-11-06T22:26:39.886Z,100.00
2022-11-06T22:29:13.192Z,100.00
2022-11-06T22:31:40.357Z,100.00
2022-11-06T22:34:07.249Z,100.00
2022-11-06T22:36:36.981Z,100.00
2022-11-06T22:39:05.733Z,100.00
2022-11-06T22:41:32.841Z,100.00
2022-11-06T22:44:00.145Z,100.00
2022-11-06T22:46:27.537Z,100.00
2022-11-06T22:48:54.483Z,100.00
2022-11-06T22:51:30.154Z,100.00
2022-11-06T22:53:57.912Z,100.00
2022-11-06T22:56:26.801Z,100.00
2022-11-06T22:58:55.677Z,100.00
2022-11-06T23:01:24.884Z,100.00
2022-11-06T23:03:56.876Z,100.00
2022-11-06T23:06:25.429Z,100.00
2022-11-06T23:08:52.830Z,100.00
2022-11-06T23:11:23.418Z,100.00
2022-11-06T23:13:51.072Z,100.00
2022-11-06T23:16:43.202Z,100.00
2022-11-06T23:19:12.433Z,100.00
2022-11-06T23:21:40.005Z,100.00
2022-11-06T23:24:07.554Z,100.00
2022-11-06T23:26:34.684Z,100.00
2022-11-06T23:29:02.138Z,100.00
2022-11-06T23:31:29.208Z,100.00
2022-11-06T23:33:56.356Z,100.00
2022-11-06T23:36:23.345Z,100.00
2022-11-06T23:38:53.408Z,100.00
2022-11-06T23:41:39.234Z,100.00
2022-11-06T23:44:26.268Z,100.00
2022-11-06T23:46:53.301Z,100.00
2022-11-06T23:49:20.178Z,100.00
2022-11-06T23:51:47.231Z,100.00
2022-11-06T23:54:14.583Z,100.00
2022-11-06T23:56:41.793Z,100.00
2022-11-06T23:59:08.749Z,100.00
